Archival Weather

Longyear

Longyear, Svalbard (ENSB)

Report from: Tuesday, September 19, 2023 11:20 AM UTC
Current time: Tuesday, July 16, 2024 9:59 AM UTC

Current weather – Weather history – Daily summaries
Weather forecast

Temperature-1.0°C (30.2°F)
Wind chill-4.3°C (24.3°F)
Dew point-6.0°C (21.2°F)
Winds 5 kts (2.6 m/s, 5.8 mph) East-Southeast (120°)
Clouds Sky clear
Altimeter30.06 in.Hg (1018 mB)
Relative humidity69 %
Density altitude-2,059 ft. (-628 m)
Remarks Ceiling and visibility OK
No significant changes expected in the next two hours
Flight conditions Visual Meteorological Conditions
Raw dataENSB 191120Z 12005KT CAVOK M01/M06 Q1018 NOSIG RMK WIND 1400FT 12005KT
An error has occurred. This application may no longer respond until reloaded. Reload 🗙